Latest Weather Observations for Broome Port

IDW60801

Issued at 5:13 am WST Wednesday 23 October 2019 (issued every 10 minutes, with the page automatically refreshed every 10 minutes)

About weather observations | Map of weather stations | Latest weather observations for WA | Other Formats
Station Details ID: 003102 Name: BROOME NTC AWS Lat: -18.00 Lon: 122.22 Height: 0.0 m
Data from the previous 72 hours. | See also: Recent months for locations in Western Australia
Date/Time
WST
Temp
°C
App
Temp
°C
Dew
Point
°C
Rel
Hum
%
Delta-T
°C
Wind Press
QNH
hPa
Press
MSL
hPa
Rain since
9am
mm
Dir  Spd
km/h
Gust
km/h
Spd
kts
Gust
kts
22/01:00pm 35.6 - - - - WSW 4 19 2 10 1006.2 1006.1 -
22/12:30pm 34.5 - - - - SW 4 26 2 14 1006.8 1006.7 -
22/12:00pm 35.3 - - - - S 4 15 2 8 1007.6 1007.5 -
22/11:30am 34.4 - - - - SSE 2 28 1 15 1008.1 1008.0 -
22/11:00am 35.6 - - - - SE 7 15 4 8 1008.4 1008.3 -
22/10:30am 35.0 - - - - ESE 7 20 4 11 1008.8 1008.7 -
22/10:00am 34.4 - - - - SE 6 24 3 13 1009.4 1009.3 -
22/09:30am 33.6 - - - - SSE 6 17 3 9 1009.9 1009.8 -
22/09:00am 33.3 - - - - SE 15 24 8 13 1009.8 1009.7 -
22/08:30am 32.0 - - - - SE 9 17 5 9 1010.0 1009.9 -
22/08:00am 30.8 - - - - SSE 6 24 3 13 1010.3 1010.2 -
22/07:30am 29.6 - - - - SSE 4 28 2 15 1010.5 1010.4 -
22/07:00am 28.7 - - - - S 6 30 3 16 1010.7 1010.6 -
22/06:30am 28.9 - - - - SSE 11 20 6 11 1010.3 1010.2 -
22/06:00am 29.2 - - - - SSE 17 28 9 15 1009.6 1009.5 -
22/05:30am 29.2 - - - - S 9 19 5 10 1009.7 1009.6 -
22/05:00am 29.4 - - - - S 6 22 3 12 1009.3 1009.2 -
22/04:30am 28.4 - - - - S 4 11 2 6 1009.4 1009.3 -
22/04:00am 27.2 - - - - SSW 6 28 3 15 1009.7 1009.6 -
22/03:30am 27.9 - - - - SSW 6 17 3 9 1009.8 1009.7 -
22/03:00am 28.2 - - - - SW 4 17 2 9 1009.9 1009.8 -
22/02:30am 28.0 - - - - WSW 4 20 2 11 1010.0 1009.9 -
22/02:00am 27.7 - - - - WSW 6 13 3 7 1010.3 1010.2 -
22/01:30am 27.6 - - - - WSW 7 19 4 10 1010.6 1010.5 -
22/01:00am 28.0 - - - - W 4 22 2 12 1011.0 1010.9 -
22/12:30am 28.0 - - - - NW 4 28 2 15 1010.4 1010.3 -
22/12:00am 28.0 - - - - NW 4 22 2 12 1010.7 1010.6 -
 
Date/Time
WST
Temp
°C
App
Temp
°C
Dew
Point
°C
Rel
Hum
%
Delta-T
°C
Wind Press
QNH
hPa
Press
MSL
hPa
Rain since
9am
mm
Dir  Spd
km/h
Gust
km/h
Spd
kts
Gust
kts
21/11:30pm 28.1 - - - - NW 6 17 3 9 1010.7 1010.6 -
21/11:00pm 28.4 - - - - NNW 7 15 4 8 1010.7 1010.6 -
21/10:30pm 28.3 - - - - NNW 7 15 4 8 1010.8 1010.7 -
21/10:00pm 28.4 - - - - NNW 9 19 5 10 1010.7 1010.6 -
21/09:30pm 28.6 - - - - NNW 9 19 5 10 1010.6 1010.5 -
21/09:00pm 28.9 - - - - NNW 7 17 4 9 1010.6 1010.5 -
21/08:30pm 28.9 - - - - NNW 7 17 4 9 1010.6 1010.5 -
21/08:00pm 29.4 - - - - NNW 11 22 6 12 1010.3 1010.2 -
21/07:30pm 28.9 - - - - NNW 9 19 5 10 1010.3 1010.2 -
21/07:00pm 29.2 - - - - NNW 6 19 3 10 1010.0 1009.9 -
21/06:30pm 29.4 - - - - NNW 13 28 7 15 1009.3 1009.2 -
21/06:00pm 29.7 - - - - N 13 30 7 16 1008.8 1008.7 -
21/05:30pm 30.4 - - - - N 13 28 7 15 1008.4 1008.3 -
21/05:00pm 31.5 - - - - NNW 13 26 7 14 1008.2 1008.1 -
21/04:30pm 34.9 - - - - E 7 17 4 9 1007.8 1007.7 -
21/04:00pm 38.6 - - - - SE 7 19 4 10 1007.3 1007.2 -
21/03:30pm 38.4 - - - - SE 7 17 4 9 1007.3 1007.2 -
21/03:00pm 37.9 - - - - SE 9 17 5 9 1007.6 1007.5 -
21/02:30pm 37.3 - - - - SE 9 20 5 11 1007.8 1007.7 -
21/02:00pm 35.4 - - - - SE 13 24 7 13 1008.0 1007.9 -
21/01:30pm 35.8 - - - - SE 13 24 7 13 1008.4 1008.3 -
21/01:00pm 35.2 - - - - SE 13 28 7 15 1008.8 1008.7 -
21/12:30pm 35.2 - - - - SE 17 28 9 15 1009.5 1009.4 -
21/12:00pm 34.4 - - - - SE 17 28 9 15 1010.0 1009.9 -
21/11:30am 34.4 - - - - SE 24 37 13 20 1010.5 1010.4 -
21/11:00am 34.9 - - - - SE 32 54 17 29 1010.9 1010.8 -
21/10:30am 34.0 - - - - SE 39 57 21 31 1011.2 1011.1 -
21/10:01am 33.2 - - - - SE 50 70 27 38 1011.5 1011.4 -
21/10:00am 33.0 - - - - SE 52 70 28 38 1011.5 1011.4 -
21/09:30am 33.1 - - - - SE 43 61 23 33 1011.9 1011.8 -
21/09:25am 32.6 - - - - SE 39 59 21 32 1012.0 1011.9 -
21/09:00am 32.3 - - - - SE 44 57 24 31 1012.2 1012.1 -
21/08:30am 32.1 - - - - SE 44 65 24 35 1012.3 1012.2 -
21/08:10am 31.5 - - - - SE 39 57 21 31 1012.5 1012.4 -
21/08:00am 31.4 - - - - SE 44 61 24 33 1012.4 1012.3 -
21/07:30am 30.4 - - - - SE 43 61 23 33 1012.3 1012.2 -
21/07:00am 29.8 - - - - SE 39 57 21 31 1012.1 1012.0 -
21/06:39am 29.8 - - - - SE 44 63 24 34 1012.0 1011.9 -
21/06:30am 29.7 - - - - SE 48 65 26 35 1011.9 1011.8 -
21/06:07am 29.9 - - - - SSE 44 63 24 34 1012.1 1012.0 -
21/06:00am 29.8 - - - - SSE 50 67 27 36 1011.9 1011.8 -
21/05:30am 30.1 - - - - SSE 48 80 26 43 1011.1 1011.0 -
21/05:07am 30.4 - - - - SSE 57 78 31 42 1010.4 1010.3 -
21/05:00am 30.2 - - - - SSE 57 72 31 39 1010.2 1010.1 -
21/04:30am 30.4 - - - - SSE 59 80 32 43 1009.8 1009.7 -
21/04:13am 30.2 - - - - SSE 59 80 32 43 1009.7 1009.6 -
21/04:00am 30.3 - - - - SSE 63 78 34 42 1009.6 1009.5 -
21/03:46am 30.7 - - - - SSE 50 72 27 39 1009.5 1009.4 -
21/03:30am 30.6 - - - - SSE 37 57 20 31 1009.4 1009.3 -
21/03:26am 30.7 - - - - SSE 35 57 19 31 1009.4 1009.3 -
21/03:16am 30.6 - - - - SSE 26 46 14 25 1009.4 1009.3 -
21/03:00am 30.5 - - - - SSE 11 20 6 11 1009.5 1009.4 -
21/02:30am 30.5 - - - - S 6 17 3 9 1009.1 1009.0 -
21/02:00am 30.2 - - - - S 9 19 5 10 1009.0 1008.9 -
21/01:30am 29.7 - - - - SW 15 28 8 15 1008.9 1008.8 -
21/01:00am 29.9 - - - - SW 17 30 9 16 1009.0 1008.9 -
21/12:30am 29.8 - - - - SW 17 26 9 14 1009.4 1009.3 -
21/12:00am 29.6 - - - - SW 13 22 7 12 1009.7 1009.6 -
 
Date/Time
WST
Temp
°C
App
Temp
°C
Dew
Point
°C
Rel
Hum
%
Delta-T
°C
Wind Press
QNH
hPa
Press
MSL
hPa
Rain since
9am
mm
Dir  Spd
km/h
Gust
km/h
Spd
kts
Gust
kts
20/11:30pm 29.5 - - - - SW 9 20 5 11 1010.0 1009.9 -
20/11:00pm 29.6 - - - - SW 6 17 3 9 1010.7 1010.6 -
20/10:30pm 29.1 - - - - SW 6 28 3 15 1010.8 1010.7 -
20/10:00pm 29.3 - - - - SW 7 13 4 7 1010.7 1010.6 -
20/09:30pm 29.2 - - - - SW 7 20 4 11 1010.6 1010.5 -
20/09:00pm 29.1 - - - - WSW 7 13 4 7 1010.5 1010.4 -
20/08:30pm 29.1 - - - - WSW 7 17 4 9 1010.4 1010.3 -
20/08:00pm 29.0 - - - - WSW 6 20 3 11 1010.1 1010.0 -
20/07:30pm 28.9 - - - - WSW 6 15 3 8 1009.9 1009.8 -
20/07:00pm 29.1 - - - - WSW 7 17 4 9 1009.5 1009.4 -
20/06:30pm 29.3 - - - - WSW 7 19 4 10 1009.1 1009.0 -
20/06:00pm 29.3 - - - - W 7 17 4 9 1008.9 1008.8 -
20/05:30pm 29.3 - - - - W 9 20 5 11 1008.5 1008.4 -
20/05:00pm 29.4 - - - - W 9 22 5 12 1008.3 1008.2 -
20/04:30pm 29.6 - - - - W 11 24 6 13 1008.1 1008.0 -
20/04:00pm 29.5 - - - - WNW 9 19 5 10 1008.2 1008.1 -
20/03:30pm 29.6 - - - - W 11 20 6 11 1008.2 1008.1 -
20/03:00pm 29.5 - - - - W 13 22 7 12 1008.5 1008.4 -
20/02:30pm 29.2 - - - - WNW 11 22 6 12 1008.9 1008.8 -
20/02:00pm 29.1 - - - - WNW 13 24 7 13 1009.2 1009.1 -
20/01:30pm 29.1 - - - - WNW 11 19 6 10 1009.6 1009.5 -
20/01:00pm 28.8 - - - - WNW 15 20 8 11 1010.1 1010.0 -
20/12:30pm 29.0 - - - - WNW 11 20 6 11 1010.5 1010.4 -
20/12:00pm 29.2 - - - - WNW 9 19 5 10 1011.1 1011.0 -
20/11:30am 29.6 - - - - WNW 7 17 4 9 1011.7 1011.6 -
20/11:00am 30.7 - - - - WNW 7 17 4 9 1012.4 1012.3 -
20/10:30am 32.9 - - - - WSW 4 13 2 7 1012.8 1012.7 -
20/10:00am 29.9 - - - - NNE 4 11 2 6 1013.4 1013.3 -
20/09:30am 30.2 - - - - ENE 2 9 1 5 1013.9 1013.8 -
20/09:00am 28.9 - - - - ESE 4 20 2 11 1014.4 1014.3 -
20/08:30am 27.7 - - - - E 4 24 2 13 1014.6 1014.5 -
20/08:00am 27.6 - - - - SE 2 11 1 6 1014.4 1014.3 -
20/07:30am 27.2 - - - - SSE 2 33 1 18 1014.2 1014.1 -
20/07:00am 27.6 - - - - S 4 26 2 14 1013.7 1013.6 -
20/06:30am 27.4 - - - - SSW 6 15 3 8 1013.2 1013.1 -
20/06:00am 27.3 - - - - SSW 6 17 3 9 1013.0 1012.9 -
20/05:30am 26.9 - - - - SSW 6 22 3 12 1012.8 1012.7 -

Other formats

Comma delimited format used in spreadsheet applications
http://www.bom.gov.au/fwo/IDW60801/IDW60801.95202.axf

JavaScript Object Notation format (JSON) in row-major order
http://www.bom.gov.au/fwo/IDW60801/IDW60801.95202.json

Data quality

Most of these data are generated automatically and are frequently updated. Quality checks on data are not normally performed. It is possible for incorrect values to appear. Refer to information at About Latest Weather Observations and please check the disclaimer before using these data.